Weather at Shelburne / Fisher Field

Public forecast

Using degrees Celsius for public forecast. Weather courtesy of forecast.io.

Closest aviation weather report (METAR) to Shelburne / Fisher Field

Closest report is CFB Borden, 19.3 nm (35.8 km) NE. Retrieved 2020/11/28 04:40 UTC (0 seconds ago):

CYBN 280440Z AUTO 20004KT 5SM -RA BKN019 OVC044 04/03 A2992

Closest aviation forecast (TAF) to Shelburne / Fisher Field

Forecast is more than 6 hours old.

Closest forecast is CFB Borden, 19.3 nm (35.8 km) NE. Retrieved 2020/11/27 18:33 UTC (10 hours ago):

TAF TAF CYBN 271730Z 2718/2806 VRB03KT P6SM OVC025 TEMPO 2718/2724 3SM -SHRA BR OVC015 FM280000 VRB03KT 2SM -SHRA BR OVC010 RMK FCST BASED ON AUTO OBS NXT FCST BY 280000Z